createdAt,value
2022-11-26T10:25:14.664Z,101194.41
2022-11-26T10:28:05.146Z,101194.41
2022-11-26T10:30:22.439Z,101192.06
2022-11-26T10:32:33.473Z,101204.66
2022-11-26T10:34:54.611Z,101225.69
2022-11-26T10:36:59.087Z,101224.50
2022-11-26T10:39:22.847Z,101244.53
2022-11-26T10:41:37.242Z,101256.38
2022-11-26T10:43:42.699Z,101280.09
2022-11-26T10:45:54.309Z,101310.47
2022-11-26T10:48:37.954Z,101317.59
2022-11-26T10:50:48.168Z,101337.31
2022-11-26T10:53:09.419Z,101360.16
2022-11-26T10:55:22.637Z,101371.50
2022-11-26T10:57:43.980Z,101390.00
2022-11-26T10:59:53.528Z,101394.38
2022-11-26T11:02:27.866Z,101396.69
2022-11-26T11:04:44.277Z,101393.03
2022-11-26T11:06:49.895Z,101397.09
2022-11-26T11:08:58.125Z,101390.94
2022-11-26T11:11:03.475Z,101390.25
2022-11-26T11:13:12.857Z,101398.47
2022-11-26T11:15:27.365Z,101400.50
2022-11-26T11:17:37.188Z,101394.91
2022-11-26T11:19:40.261Z,101411.50
2022-11-26T11:21:52.269Z,101409.19
2022-11-26T11:24:15.056Z,101435.00
2022-11-26T11:26:40.526Z,101437.94
2022-11-26T11:29:10.003Z,101421.78
2022-11-26T11:31:17.692Z,101417.56
2022-11-26T11:33:27.060Z,101405.56
2022-11-26T11:36:03.919Z,101404.13
2022-11-26T11:38:25.766Z,101429.63
2022-11-26T11:40:31.974Z,101447.37
2022-11-26T11:42:37.356Z,101455.13
2022-11-26T11:44:47.488Z,101447.88
2022-11-26T11:47:09.030Z,101437.41
2022-11-26T11:49:15.926Z,101421.13
2022-11-26T11:52:04.732Z,101413.41
2022-11-26T11:54:43.455Z,101404.09
2022-11-26T11:57:36.139Z,101392.50
2022-11-26T12:00:26.197Z,101370.66
2022-11-26T12:03:01.584Z,101364.16
2022-11-26T12:05:36.769Z,101351.53
2022-11-26T12:08:08.336Z,101359.19
2022-11-26T12:10:12.920Z,101375.78
2022-11-26T12:12:27.877Z,101369.44
2022-11-26T12:14:49.644Z,101350.22
2022-11-26T12:17:02.442Z,101355.81
2022-11-26T12:19:27.730Z,101358.06
2022-11-26T12:21:39.336Z,101376.66
2022-11-26T12:24:12.013Z,101367.47
2022-11-26T12:26:17.549Z,101364.47
2022-11-26T12:28:34.483Z,101359.69
2022-11-26T12:31:16.367Z,101337.91
2022-11-26T12:33:27.849Z,101328.50
2022-11-26T12:36:10.802Z,101330.62
2022-11-26T12:38:53.703Z,101317.91
2022-11-26T12:41:46.938Z,101320.97
2022-11-26T12:44:16.998Z,101335.78
2022-11-26T12:46:28.645Z,101352.13
2022-11-26T12:48:48.725Z,101342.16
2022-11-26T12:51:16.583Z,101340.88
2022-11-26T12:53:50.426Z,101346.59
2022-11-26T12:56:03.269Z,101349.84
2022-11-26T12:58:19.508Z,101341.53
2022-11-26T13:00:36.415Z,101343.81
2022-11-26T13:02:50.407Z,101339.19
2022-11-26T13:05:37.322Z,101322.13
2022-11-26T13:08:00.257Z,101310.31
2022-11-26T13:11:08.873Z,101323.31
2022-11-26T13:13:51.722Z,101310.50
2022-11-26T13:16:40.282Z,101312.84
2022-11-26T13:19:29.594Z,101309.25
2022-11-26T13:22:33.248Z,101320.31
2022-11-26T13:25:03.986Z,101336.13
2022-11-26T13:27:37.586Z,101324.13
2022-11-26T13:29:59.513Z,101309.78
2022-11-26T13:32:43.287Z,101313.56
2022-11-26T13:35:51.416Z,101309.34
2022-11-26T13:38:19.487Z,101307.81
2022-11-26T13:40:44.908Z,101307.94
2022-11-26T13:46:35.879Z,101302.69
2022-11-26T13:48:57.351Z,101302.16
2022-11-26T13:51:21.654Z,101299.47
2022-11-26T13:54:25.156Z,101303.94
2022-11-26T13:56:42.095Z,101302.03
2022-11-26T13:59:14.440Z,101305.38
2022-11-26T14:04:26.428Z,101309.97
2022-11-26T14:13:12.048Z,101290.97
2022-11-26T14:18:04.365Z,101276.00
2022-11-26T14:20:33.991Z,101261.53
2022-11-26T14:26:28.075Z,101274.97
2022-11-26T14:31:40.361Z,101266.03
2022-11-26T14:33:54.167Z,101263.16
2022-11-26T14:37:12.424Z,101262.56
2022-11-26T14:39:18.892Z,101268.00
2022-11-26T14:41:22.655Z,101267.34
2022-11-26T14:49:05.667Z,101254.75
2022-11-26T14:51:31.953Z,101247.59
2022-11-26T14:56:31.453Z,101251.16
2022-11-26T14:59:21.296Z,101252.06
2022-11-26T15:01:37.699Z,101254.63
2022-11-26T15:03:43.892Z,101261.63
2022-11-26T15:05:48.397Z,101261.59
2022-11-26T15:08:31.595Z,101257.31
2022-11-26T15:11:17.315Z,101263.22
2022-11-26T15:13:40.695Z,101265.47
2022-11-26T15:16:31.319Z,101277.97
2022-11-26T15:18:47.560Z,101277.37
2022-11-26T15:21:01.407Z,101262.81
2022-11-26T15:23:37.829Z,101260.31
2022-11-26T15:26:09.718Z,101253.13
2022-11-26T15:28:23.951Z,101251.41
2022-11-26T15:30:36.605Z,101252.75
2022-11-26T15:33:13.866Z,101250.84
2022-11-26T15:35:29.470Z,101250.97
2022-11-26T15:37:59.799Z,101244.16
2022-11-26T15:40:35.547Z,101236.59
2022-11-26T15:42:40.405Z,101241.81
2022-11-26T15:45:04.298Z,101232.50
2022-11-26T15:47:33.240Z,101240.25
2022-11-26T15:50:00.701Z,101243.03
2022-11-26T15:52:15.972Z,101231.47
2022-11-26T15:55:04.706Z,101230.41
2022-11-26T15:57:30.006Z,101232.25
2022-11-26T15:59:41.513Z,101227.25
2022-11-26T16:01:46.141Z,101224.00
2022-11-26T16:03:50.847Z,101216.34
2022-11-26T16:05:56.265Z,101208.56
2022-11-26T16:08:26.693Z,101211.09
2022-11-26T16:10:37.231Z,101214.62
2022-11-26T16:12:44.708Z,101210.88
2022-11-26T16:14:47.092Z,101200.56
2022-11-26T16:16:51.374Z,101201.56
2022-11-26T16:18:59.719Z,101209.41
2022-11-26T16:21:27.760Z,101213.09
2022-11-26T16:23:30.785Z,101207.00
2022-11-26T16:25:35.063Z,101207.88
2022-11-26T16:27:37.387Z,101204.38
2022-11-26T16:29:39.909Z,101202.81
2022-11-26T16:31:42.121Z,101197.62
2022-11-26T16:33:45.210Z,101192.69
2022-11-26T16:35:49.518Z,101185.03
2022-11-26T16:37:52.400Z,101181.47
2022-11-26T16:40:24.886Z,101175.31
2022-11-26T16:42:29.905Z,101175.41
2022-11-26T16:44:32.163Z,101168.38
2022-11-26T16:46:38.716Z,101162.25
2022-11-26T16:48:43.123Z,101163.78
2022-11-26T16:50:45.423Z,101167.59
2022-11-26T16:52:48.129Z,101165.34
2022-11-26T16:54:50.981Z,101169.31
2022-11-26T16:56:56.072Z,101180.72
2022-11-26T16:58:59.947Z,101173.91
2022-11-26T17:01:03.574Z,101170.50
2022-11-26T17:03:10.179Z,101169.63
2022-11-26T17:05:16.245Z,101167.81
2022-11-26T17:07:47.026Z,101166.97
2022-11-26T17:09:50.179Z,101172.25
2022-11-26T17:11:52.969Z,101171.16
2022-11-26T17:13:55.734Z,101174.09
2022-11-26T17:15:58.259Z,101174.88
2022-11-26T17:18:10.930Z,101176.72
2022-11-26T17:20:23.207Z,101167.03
2022-11-26T17:22:25.863Z,101169.59
2022-11-26T17:24:31.440Z,101174.06
2022-11-26T17:26:34.625Z,101178.31
2022-11-26T17:28:36.930Z,101179.41
2022-11-26T17:30:40.084Z,101170.38
2022-11-26T17:32:42.669Z,101179.19
2022-11-26T17:34:46.056Z,101167.94
2022-11-26T17:36:48.943Z,101171.28
2022-11-26T17:38:52.188Z,101166.84
2022-11-26T17:40:54.466Z,101181.38
2022-11-26T17:42:56.770Z,101178.91
2022-11-26T17:44:59.659Z,101173.41
2022-11-26T17:47:16.366Z,101177.75
2022-11-26T17:49:19.805Z,101179.56
2022-11-26T17:51:22.403Z,101177.72
2022-11-26T17:53:24.690Z,101195.75
2022-11-26T17:55:27.387Z,101186.28
2022-11-26T17:57:30.019Z,101188.97
2022-11-26T17:59:32.825Z,101186.28
2022-11-26T18:01:35.373Z,101188.72
2022-11-26T18:03:38.329Z,101188.78
2022-11-26T18:05:42.366Z,101190.59
2022-11-26T18:07:44.907Z,101195.72
2022-11-26T18:09:48.038Z,101198.63
2022-11-26T18:11:53.343Z,101183.19
2022-11-26T18:13:55.859Z,101185.69
2022-11-26T18:15:59.729Z,101177.44
2022-11-26T18:18:01.963Z,101181.63
2022-11-26T18:20:05.605Z,101184.25
2022-11-26T18:22:12.686Z,101185.09
2022-11-26T18:24:14.995Z,101188.63
2022-11-26T18:26:18.649Z,101192.13
2022-11-26T18:28:21.238Z,101188.50
2022-11-26T18:30:24.783Z,101195.53
2022-11-26T18:32:27.430Z,101192.22
2022-11-26T18:34:30.063Z,101196.66
2022-11-26T18:36:32.735Z,101194.78
2022-11-26T18:38:37.114Z,101193.84
2022-11-26T18:40:39.838Z,101192.81
2022-11-26T18:42:42.451Z,101196.50
2022-11-26T18:44:45.150Z,101194.78
2022-11-26T18:46:48.148Z,101194.62
2022-11-26T18:48:51.219Z,101196.91
2022-11-26T18:50:58.163Z,101197.16
2022-11-26T18:53:00.825Z,101194.44
2022-11-26T18:55:08.378Z,101197.97
2022-11-26T18:57:10.892Z,101193.78
2022-11-26T18:59:14.201Z,101196.19
2022-11-26T19:01:28.798Z,101204.62
2022-11-26T19:03:31.168Z,101213.97
2022-11-26T19:05:35.117Z,101219.38
2022-11-26T19:07:37.959Z,101225.41
2022-11-26T19:09:41.095Z,101225.34
2022-11-26T19:11:45.263Z,101238.25
2022-11-26T19:13:48.717Z,101236.53
2022-11-26T19:15:51.422Z,101238.78
2022-11-26T19:17:54.403Z,101238.13
2022-11-26T19:19:57.203Z,101245.09
2022-11-26T19:22:01.580Z,101240.97
2022-11-26T19:24:07.891Z,101244.34
2022-11-26T19:26:10.353Z,101240.84
2022-11-26T19:28:13.152Z,101249.34
2022-11-26T19:30:16.728Z,101246.75
2022-11-26T19:32:19.355Z,101252.78
2022-11-26T19:34:22.033Z,101257.31
2022-11-26T19:36:25.101Z,101250.75
2022-11-26T19:38:28.158Z,101256.75
2022-11-26T19:40:33.339Z,101249.72
2022-11-26T19:42:37.679Z,101256.47
2022-11-26T19:44:43.303Z,101263.59
2022-11-26T19:46:48.300Z,101270.47
2022-11-26T19:48:52.334Z,101262.06
2022-11-26T19:50:56.016Z,101267.34
2022-11-26T19:52:58.415Z,101260.50
2022-11-26T19:55:01.346Z,101260.47
2022-11-26T19:57:04.194Z,101262.12
2022-11-26T19:59:06.912Z,101253.53
2022-11-26T20:01:12.335Z,101260.50
2022-11-26T20:03:15.250Z,101265.84
2022-11-26T20:05:18.028Z,101258.88
2022-11-26T20:07:20.880Z,101272.78
2022-11-26T20:09:23.832Z,101261.22
2022-11-26T20:11:28.175Z,101268.13
2022-11-26T20:13:31.132Z,101272.59
2022-11-26T20:15:38.948Z,101270.84
2022-11-26T20:17:41.706Z,101274.41
2022-11-26T20:19:44.564Z,101271.09
2022-11-26T20:21:50.277Z,101268.69
2022-11-26T20:23:54.387Z,101266.97
2022-11-26T20:25:57.395Z,101270.50
2022-11-26T20:28:00.462Z,101260.22
2022-11-26T20:30:03.427Z,101258.31
2022-11-26T20:32:06.212Z,101248.16
2022-11-26T20:34:09.595Z,101251.38
2022-11-26T20:36:15.343Z,101247.78
2022-11-26T20:38:18.330Z,101246.63
2022-11-26T20:40:21.340Z,101249.94
2022-11-26T20:42:24.423Z,101252.94
2022-11-26T20:44:28.989Z,101238.00
2022-11-26T20:46:31.685Z,101239.38
2022-11-26T20:48:36.258Z,101235.84
2022-11-26T20:50:38.969Z,101238.59
2022-11-26T20:52:41.965Z,101240.56
2022-11-26T20:54:46.487Z,101229.22
2022-11-26T20:56:50.960Z,101225.91
2022-11-26T20:58:54.072Z,101236.31
2022-11-26T21:00:57.739Z,101229.75
2022-11-26T21:03:01.239Z,101236.69
2022-11-26T21:05:04.263Z,101228.47
2022-11-26T21:07:06.591Z,101230.94
2022-11-26T21:09:12.765Z,101235.25
2022-11-26T21:11:17.272Z,101230.09
2022-11-26T21:13:19.824Z,101229.00
2022-11-26T21:15:23.609Z,101228.84
2022-11-26T21:17:26.472Z,101231.47
2022-11-26T21:19:29.178Z,101223.13
2022-11-26T21:21:31.535Z,101220.78
2022-11-26T21:23:34.499Z,101219.84
2022-11-26T21:25:38.973Z,101220.50
2022-11-26T21:27:41.320Z,101223.97
2022-11-26T21:29:46.214Z,101223.00
2022-11-26T21:31:48.442Z,101229.06
2022-11-26T21:33:56.612Z,101231.44
2022-11-26T21:36:07.701Z,101229.50
2022-11-26T21:38:10.321Z,101227.09
2022-11-26T21:40:12.999Z,101234.00
2022-11-26T21:42:15.883Z,101233.09
2022-11-26T21:44:18.229Z,101239.28
2022-11-26T21:46:23.623Z,101242.53
2022-11-26T21:48:26.227Z,101251.25
2022-11-26T21:50:28.501Z,101252.16
2022-11-26T21:52:30.753Z,101248.06
2022-11-26T21:54:33.293Z,101252.44
2022-11-26T21:56:35.859Z,101252.16
2022-11-26T21:58:38.182Z,101253.91
2022-11-26T22:00:40.661Z,101262.38
2022-11-26T22:02:43.160Z,101270.25
2022-11-26T22:04:45.431Z,101266.16
2022-11-26T22:06:49.213Z,101264.97
2022-11-26T22:08:52.547Z,101279.84
2022-11-26T22:10:54.782Z,101282.78
2022-11-26T22:12:57.233Z,101283.00
2022-11-26T22:14:59.739Z,101269.81
2022-11-26T22:17:02.405Z,101263.59
2022-11-26T22:19:05.037Z,101269.59
2022-11-26T22:21:11.571Z,101273.87
2022-11-26T22:23:13.862Z,101267.03
2022-11-26T22:25:16.217Z,101265.31
2022-11-26T22:27:18.818Z,101270.22
2022-11-26T22:29:21.110Z,101267.50
2022-11-26T22:31:27.001Z,101266.38
2022-11-26T22:33:29.637Z,101267.31
2022-11-26T22:35:33.407Z,101261.88
2022-11-26T22:37:35.609Z,101268.91
2022-11-26T22:39:38.585Z,101267.19
2022-11-26T22:41:42.605Z,101267.44
2022-11-26T22:43:44.965Z,101265.91
2022-11-26T22:45:47.464Z,101255.59
2022-11-26T22:47:52.685Z,101256.44
2022-11-26T22:49:55.200Z,101260.44
2022-11-26T22:51:57.693Z,101253.56
2022-11-26T22:54:02.236Z,101256.06
2022-11-26T22:56:05.024Z,101251.06
2022-11-26T22:58:07.542Z,101248.56
2022-11-26T23:00:14.029Z,101255.94
2022-11-26T23:02:16.307Z,101254.25
2022-11-26T23:04:18.869Z,101250.97
2022-11-26T23:06:23.775Z,101245.09
2022-11-26T23:08:26.093Z,101250.50
2022-11-26T23:10:28.559Z,101254.69
2022-11-26T23:12:30.782Z,101252.06
2022-11-26T23:14:33.337Z,101251.19
2022-11-26T23:16:37.295Z,101248.56
2022-11-26T23:18:39.735Z,101241.84
2022-11-26T23:20:43.273Z,101246.91
2022-11-26T23:22:45.751Z,101240.59
